Jeffersonville, New York
Current Conditions -  °F | °C
As of 1:15 PM on Friday 24 Oct 2014 (Local Time) from KMSV Reporting Station
Broken Clouds Broken Clouds  
Wind Chill: 55°   Ceiling: 4500
Heat Index: 55°   Visibility: 10mi
Dew Point: 43°   Wind: 17mph
Humidity: 63%   Direction: 330°NNW
Pressure: 29.82"   Gusts: 30mph
Location:  41.78°N, 74.93°W
Report Text: KMSV 241715Z AUTO 33015G26KT 10SM FEW036 BKN045 13/06 A2982 RMK AO1
Loading
Personal Weather Stations






























Interactive Weather Map
Tropical Storm Tracking
New forecast layout! Learn more

10-Day Weather Forecast

Advertisements
Track Severe Weather on mobile